Casper, WY

2:10 PM MST on February 24, 2017 (GMT -0700)
Grant Avenue | | Change Station
Active Advisory: Special Statement Active Notice: Public Information Statement

Elev 5164 ft 42.84 °N, 106.32 °W | Updated 9 minutes ago

Mostly Cloudy
Mostly Cloudy
29.7 °F
Feels Like 30 °F
N
1.9
Wind Variable Wind from WNW
Gusts 3.7 mph

Today
High -- | Low -- °F
--% Chance of Precip.
Yesterday
High -- | Low -- °F
Precip. -- in
Pressure 30.09 in
Visibility 10.0 miles
Clouds Scattered Clouds 9000 ft
Windchill 30 °F
Dew Point 19 °F
Humidity 64%
Rainfall 0.00 in
Snow Depth Not available.
6:48 AM 5:48 PM
Waning Crescent, 4% visible
METAR KCPR 242053Z 26008KT 10SM SCT090 M06/M11 A2994 RMK AO2 SLP189 60000 T10561111 58002
Pressure 30.09 in
Visibility 10.0 miles
Clouds Scattered Clouds 9000 ft
Windchill 30 °F
Dew Point 19 °F
Humidity 64%
Rainfall 0.00 in
Snow Depth Not available.
6:48 AM 5:48 PM
Waning Crescent, 4% visible
METAR KCPR 242053Z 26008KT 10SM SCT090 M06/M11 A2994 RMK AO2 SLP189 60000 T10561111 58002

Get Your Daily Forecast Email!

Thanks for signing up!

Be on the lookout for a verification email in your inbox.

You'll start receiving the daily forecast at 8 AM.

×

10-Day Weather Forecast

Almanac

Astronomy

Feb. 24, 2017 Rise Set
Actual Time
Civil Twilight
Nautical Twilight
Astronomical Twilight
Moon
Length of Visible Light
Length of Day
Tomorrow will be .
, % of the Moon is Illuminated

Today's Extremes

State Highs State Lows

Community

WunderPhotos

Upload Photos

1,962,540 photos uploaded!

WunderBlog® & News

Nearby

Air Quality

  Air Quality AQ Index Pollutant
Not available.

Snow Depth

Station Depth Elevation

Earthquake Activity

City Distance Mag. Time & Date
Minimum magnitude displayed is 2.5.

Coastal Water Temperatures

Place Temperature

Stations

Nearby Weather Stations

Station Location Temp. Windchill Dew Point Humidity Wind Precip. Elev Updated Type
                   

Watches & Warnings

Special Statement
Issued: 2:05 PM MST Feb. 24, 2017 – National Weather Service

... Some blowing and drifting of snow possible Saturday...

Beginning Saturday morning, west to southwest winds will increase
across portions of central Wyoming. These winds may gust 25 to 35
mph at times and mix will new fallen snow to cause areas of
blowing snow that could reduce visibilities to below 1 mile and
cause some drifting of snow across the roadways. The winds should
subside some by Saturday evening.



205 PM MST Fri Feb 24 2017

... Some blowing and drifting of snow possible Saturday...

Beginning Saturday morning, west to southwest winds will increase
across portions of central Wyoming. These winds may gust 25 to 35
mph at times and mix will new fallen snow to cause areas of
blowing snow that could reduce visibilities to below 1 mile and
cause some drifting of snow across the roadways. The winds should
subside some by Saturday evening.